Time;durP1;ratioP1;P1;durP2;ratioP2;P2;SDS_P1;SDS_P2;PMS_P1;PMS_P2;Temp;Humidity;BMP_temperature;BMP_pressure;BME280_temperature;BME280_humidity;BME280_pressure;Samples;Min_cycle;Max_cycle;Signal;HPM_P1;HPM_P2
2021/11/14 00:01:30;;;;;;;29.08;16.40;;;180.10;2252.80;;;;;;4954830;29;20038;-77
2021/11/14 00:03:55;;;;;;;;;;;180.10;2252.80;;;;;;4937988;29;20023;-77
2021/11/14 00:06:21;;;;;;;26.38;15.52;;;180.10;2252.80;;;;;;4954285;29;20021;-78
2021/11/14 00:08:48;;;;;;;;;;;180.00;2252.80;;;;;;4954770;28;20045;-77
2021/11/14 00:11:16;;;;;;;20.95;12.57;;;179.90;2252.80;;;;;;4954480;28;19949;-76
2021/11/14 00:13:43;;;;;;;33.50;17.33;;;179.90;2252.80;;;;;;4956785;28;20035;-76
2021/11/14 00:16:11;;;;;;;33.47;17.15;;;180.00;2252.80;;;;;;4937128;29;20031;-76
2021/11/14 00:18:39;;;;;;;31.33;17.83;;;180.00;2252.80;;;;;;4968467;28;20027;-76
2021/11/14 00:21:08;;;;;;;29.80;17.58;;;180.10;2252.80;;;;;;4965191;28;20027;-78
2021/11/14 00:23:34;;;;;;;28.17;17.40;;;180.10;2252.80;;;;;;4964447;28;20030;-78
2021/11/14 00:26:13;;;;;;;;;;;180.10;2252.80;;;;;;4965429;28;20024;-75
2021/11/14 00:28:42;;;;;;;34.72;18.17;;;180.10;2252.80;;;;;;4946105;28;19906;-78
2021/11/14 00:31:09;;;;;;;35.38;18.25;;;180.10;2252.80;;;;;;4945753;28;20023;-80
2021/11/14 00:33:35;;;;;;;35.05;17.50;;;180.00;2252.80;;;;;;4964183;28;20027;-77
2021/11/14 00:36:02;;;;;;;27.70;16.35;;;179.90;2252.80;;;;;;4954616;29;20543;-75
2021/11/14 00:38:28;;;;;;;32.13;19.00;;;179.80;2252.80;;;;;;4945323;28;20098;-76
2021/11/14 00:40:54;;;;;;;31.60;18.10;;;179.80;2252.80;;;;;;4945786;28;20291;-77
2021/11/14 00:43:20;;;;;;;29.67;17.30;;;179.80;2252.80;;;;;;4947198;28;20034;-77
2021/11/14 00:45:46;;;;;;;;;;;179.80;2252.80;;;;;;4968943;28;20073;-76
2021/11/14 00:48:14;;;;;;;29.60;17.02;;;179.80;2252.80;;;;;;4946882;28;19906;-78
2021/11/14 00:50:43;;;;;;;28.77;17.85;;;179.80;2252.80;;;;;;4950235;28;20019;-78
2021/11/14 00:53:14;;;;;;;32.95;18.35;;;179.80;2252.80;;;;;;4951320;28;20455;-75
2021/11/14 00:55:40;;;;;;;38.17;19.00;;;179.80;2252.80;;;;;;4940669;29;20039;-77
2021/11/14 00:58:06;;;;;;;32.25;19.05;;;179.80;2252.80;;;;;;4957992;29;20097;-77
2021/11/14 01:00:32;;;;;;;;;;;179.80;2252.80;;;;;;4951424;28;20031;-77
2021/11/14 01:03:00;;;;;;;31.83;18.30;;;179.70;2252.80;;;;;;4940852;29;19906;-75
2021/11/14 01:05:27;;;;;;;34.15;18.42;;;179.80;2252.80;;;;;;4940496;29;20066;-78
2021/11/14 01:07:53;;;;;;;32.05;19.45;;;179.80;2252.80;;;;;;4950990;28;20078;-75
2021/11/14 01:10:27;;;;;;;32.08;18.58;;;179.70;2252.80;;;;;;4940250;29;20057;-78
2021/11/14 01:12:52;;;;;;;36.75;18.92;;;179.80;2252.80;;;;;;4957666;29;20097;-77
2021/11/14 01:15:20;;;;;;;;;;;179.80;2252.80;;;;;;4967140;28;20031;-77
2021/11/14 01:17:48;;;;;;;34.22;18.85;;;179.60;2252.80;;;;;;4949019;28;19906;-78
2021/11/14 01:20:23;;;;;;;32.83;19.63;;;179.60;2252.80;;;;;;4949070;28;20687;-78
2021/11/14 01:23:02;;;;;;;35.47;20.75;;;179.60;2252.80;;;;;;4966178;28;20078;-77
2021/11/14 01:25:28;;;;;;;34.05;19.77;;;179.60;2252.80;;;;;;4951316;28;20078;-75
2021/11/14 01:27:53;;;;;;;;;;;179.40;2252.80;;;;;;4948431;28;20023;-77
2021/11/14 01:30:23;;;;;;;31.52;18.70;;;179.50;2252.80;;;;;;4957235;29;19906;-78
2021/11/14 01:32:50;;;;;;;35.13;19.40;;;179.40;2252.80;;;;;;4939904;29;20546;-76
2021/11/14 01:35:17;;;;;;;35.10;19.27;;;179.50;2252.80;;;;;;4957209;29;20035;-77
2021/11/14 01:37:53;;;;;;;37.75;21.25;;;179.60;2252.80;;;;;;4939723;29;20015;-77
2021/11/14 01:40:28;;;;;;;28.13;16.15;;;179.70;2252.80;;;;;;4948286;28;20372;-76
2021/11/14 01:42:54;;;;;;;33.58;19.63;;;179.70;2252.80;;;;;;4967548;28;20054;-77
2021/11/14 01:45:30;;;;;;;;;;;179.60;2252.80;;;;;;4957399;29;20027;-77
2021/11/14 01:47:57;;;;;;;38.92;21.10;;;179.60;2252.80;;;;;;4950205;28;19909;-77
2021/11/14 01:50:22;;;;;;;;;;;179.60;2252.80;;;;;;4941860;28;20031;-77
2021/11/14 01:52:50;;;;;;;33.10;18.63;;;179.50;2252.80;;;;;;4965287;28;20414;-78
2021/11/14 01:55:22;;;;;;;34.42;20.17;;;179.30;2252.80;;;;;;4962684;28;20031;-77
2021/11/14 01:57:49;;;;;;;36.33;21.38;;;154.50;2252.80;;;;;;4965717;28;20019;-78
2021/11/14 02:00:25;;;;;;;41.92;22.98;;;154.40;2252.80;;;;;;4950199;28;20086;-76
2021/11/14 02:02:51;;;;;;;43.33;22.30;;;154.40;2252.80;;;;;;4956547;29;20026;-76
2021/11/14 02:05:22;;;;;;;;;;;154.40;2252.80;;;;;;4939893;29;20395;-77
2021/11/14 02:07:55;;;;;;;39.97;21.35;;;154.50;2252.80;;;;;;4947595;29;19996;-76
2021/11/14 02:10:22;;;;;;;41.33;21.95;;;179.20;2252.80;;;;;;4962310;28;20039;-76
2021/11/14 02:12:48;;;;;;;36.28;21.00;;;154.50;2252.80;;;;;;4965580;28;20027;-78
2021/11/14 02:15:14;;;;;;;;;;;154.50;2252.80;;;;;;4956977;29;20542;-78
2021/11/14 02:17:40;;;;;;;40.85;22.45;;;154.50;2252.80;;;;;;4939366;29;19906;-78
2021/11/14 02:20:08;;;;;;;43.13;24.25;;;154.50;2252.80;;;;;;4949180;28;20031;-78
2021/11/14 02:22:34;;;;;;;42.20;24.08;;;154.50;2252.80;;;;;;4964669;28;20019;-76
2021/11/14 02:24:59;;;;;;;;;;;179.20;2252.80;;;;;;4956713;29;20476;-78
2021/11/14 02:27:25;;;;;;;43.28;22.63;;;179.20;2252.80;;;;;;4939293;29;19923;-78
2021/11/14 02:29:51;;;;;;;;;;;179.20;2252.80;;;;;;4966993;28;20026;-77
2021/11/14 02:32:17;;;;;;;38.58;21.55;;;154.50;2252.80;;;;;;4945105;28;19907;-77
2021/11/14 02:34:44;;;;;;;44.97;22.90;;;179.30;2252.80;;;;;;4967382;28;20035;-77
2021/11/14 02:37:09;;;;;;;43.17;22.42;;;179.40;2252.80;;;;;;4965256;28;20023;-78
2021/11/14 02:39:35;;;;;;;;;;;179.30;2252.80;;;;;;4956563;29;20077;-75
2021/11/14 02:42:03;;;;;;;36.40;20.13;;;179.40;2252.80;;;;;;4938582;29;19906;-76
2021/11/14 02:44:28;;;;;;;47.17;23.05;;;179.40;2252.80;;;;;;4938524;29;20059;-78
2021/11/14 02:46:54;;;;;;;;;;;179.40;2252.80;;;;;;4967257;28;20119;-77
2021/11/14 02:49:20;;;;;;;40.95;23.02;;;179.30;2252.80;;;;;;4949020;28;19906;-78
2021/11/14 02:51:46;;;;;;;;;;;179.30;2252.80;;;;;;4965983;28;20022;-77
2021/11/14 02:54:11;;;;;;;40.45;23.60;;;179.30;2252.80;;;;;;4964707;28;19906;-78
2021/11/14 02:56:37;;;;;;;;;;;179.20;2252.80;;;;;;4956132;29;20030;-75
2021/11/14 02:59:04;;;;;;;44.22;24.17;;;179.30;2252.80;;;;;;4938471;29;19989;-78
2021/11/14 03:01:41;;;;;;;42.38;22.30;;;179.30;2252.80;;;;;;4966077;28;20031;-78
2021/11/14 03:04:14;;;;;;;39.22;21.70;;;179.20;2252.80;;;;;;4946585;28;20031;-78
2021/11/14 03:06:40;;;;;;;42.30;23.30;;;154.50;2252.80;;;;;;4940743;28;20086;-76
2021/11/14 03:09:06;;;;;;;;;;;179.20;2252.80;;;;;;4948507;28;20047;-76
2021/11/14 03:11:33;;;;;;;40.35;22.45;;;179.30;2252.80;;;;;;4966802;28;19910;-78
2021/11/14 03:13:59;;;;;;;51.78;27.23;;;179.40;2252.80;;;;;;4966079;28;20023;-78
2021/11/14 03:16:26;;;;;;;39.85;23.15;;;179.40;2252.80;;;;;;4937941;29;20051;-78
2021/11/14 03:18:56;;;;;;;42.35;23.42;;;179.40;2252.80;;;;;;4965814;28;20110;-78
2021/11/14 03:21:22;;;;;;;38.75;22.17;;;179.40;2252.80;;;;;;4962244;28;20023;-77
2021/11/14 03:23:49;;;;;;;47.53;25.00;;;179.40;2252.80;;;;;;4966811;28;20023;-77
2021/11/14 03:26:15;;;;;;;44.58;22.55;;;179.40;2252.80;;;;;;4946729;28;20680;-76
2021/11/14 03:28:41;;;;;;;;;;;179.40;2252.80;;;;;;4960211;28;20039;-78
2021/11/14 03:31:07;;;;;;;44.10;22.13;;;179.20;2252.80;;;;;;4964590;28;19953;-77
2021/11/14 03:33:32;;;;;;;;;;;154.30;2252.80;;;;;;4947324;28;20409;-78
2021/11/14 03:36:05;;;;;;;43.85;25.08;;;154.20;2252.80;;;;;;4966261;28;20401;-75
2021/11/14 03:38:34;;;;;;;42.38;22.85;;;154.00;2252.80;;;;;;4964250;28;20074;-75
2021/11/14 03:41:01;;;;;;;41.67;22.70;;;154.10;2252.80;;;;;;4948624;28;20026;-78
2021/11/14 03:43:28;;;;;;;48.88;22.70;;;154.10;2252.80;;;;;;4938053;29;20038;-78
2021/11/14 03:45:54;;;;;;;42.55;23.42;;;154.00;2252.80;;;;;;4937725;29;20019;-78
2021/11/14 03:48:21;;;;;;;;;;;154.00;2252.80;;;;;;4938293;29;20023;-76
2021/11/14 03:50:47;;;;;;;41.63;22.58;;;154.00;2252.80;;;;;;4959188;28;19907;-77
2021/11/14 03:53:13;;;;;;;;;;;154.00;2252.80;;;;;;4964594;28;20021;-78
2021/11/14 03:55:39;;;;;;;43.72;22.90;;;154.00;2252.80;;;;;;4937776;29;20294;-76
2021/11/14 03:58:06;;;;;;;47.25;24.80;;;153.80;2252.80;;;;;;4937621;29;20019;-76
2021/11/14 04:00:39;;;;;;;40.63;23.73;;;153.60;2252.80;;;;;;4937447;29;20079;-77
2021/11/14 04:03:05;;;;;;;44.60;24.10;;;153.60;2252.80;;;;;;4963669;28;20424;-75
2021/11/14 04:05:31;;;;;;;43.55;24.85;;;153.60;2252.80;;;;;;4947087;28;20019;-78
2021/11/14 04:07:58;;;;;;;;;;;153.60;2252.80;;;;;;4965715;28;20033;-76
2021/11/14 04:10:23;;;;;;;45.65;25.45;;;153.80;2252.80;;;;;;4948178;28;19965;-75
2021/11/14 04:12:49;;;;;;;;;;;153.80;2252.80;;;;;;4955231;29;20031;-78
2021/11/14 04:15:23;;;;;;;46.08;24.33;;;153.70;2252.80;;;;;;4954548;29;19965;-78
2021/11/14 04:17:55;;;;;;;45.90;23.70;;;153.90;2252.80;;;;;;4962565;28;20019;-78
2021/11/14 04:20:22;;;;;;;46.40;24.38;;;153.90;2252.80;;;;;;4967213;28;20089;-77
2021/11/14 04:22:48;;;;;;;44.05;25.27;;;153.90;2252.80;;;;;;4951302;28;20110;-77
2021/11/14 04:25:14;;;;;;;;;;;153.90;2252.80;;;;;;4941900;29;20114;-77
2021/11/14 04:27:39;;;;;;;49.75;24.83;;;153.90;2252.80;;;;;;4941449;29;19906;-76
2021/11/14 04:30:06;;;;;;;;;;;153.90;2252.80;;;;;;4941551;29;20038;-78
2021/11/14 04:32:32;;;;;;;48.22;23.40;;;153.80;2252.80;;;;;;4941305;29;19907;-79
2021/11/14 04:34:57;;;;;;;;;;;153.60;2252.80;;;;;;4966461;28;20031;-75
2021/11/14 04:37:23;;;;;;;47.05;23.67;;;153.60;2252.80;;;;;;4947421;28;19906;-77
2021/11/14 04:39:49;;;;;;;;;;;128.90;2252.80;;;;;;4951382;28;20027;-79
2021/11/14 04:42:14;;;;;;;45.00;24.08;;;153.60;2252.80;;;;;;4958455;29;19920;-77
2021/11/14 04:44:40;;;;;;;;;;;153.60;2252.80;;;;;;4969400;28;20023;-76
2021/11/14 04:47:06;;;;;;;45.60;24.42;;;153.70;2252.80;;;;;;4966981;28;19910;-78
2021/11/14 04:49:32;;;;;;;;;;;153.80;2252.80;;;;;;4953004;28;20043;-75
2021/11/14 04:51:58;;;;;;;46.90;25.33;;;153.90;2252.80;;;;;;4949781;28;19913;-78
2021/11/14 04:54:23;;;;;;;;;;;153.70;2252.80;;;;;;4941367;29;20031;-78
2021/11/14 04:56:49;;;;;;;49.67;23.35;;;153.60;2252.80;;;;;;4940914;29;19914;-78
2021/11/14 04:59:15;;;;;;;;;;;128.90;2252.80;;;;;;4958367;29;20060;-78
2021/11/14 05:01:41;;;;;;;45.22;24.63;;;128.70;2252.80;;;;;;4940464;29;19906;-78
2021/11/14 05:04:07;;;;;;;;;;;128.60;2252.80;;;;;;4949995;28;20050;-78
2021/11/14 05:06:33;;;;;;;48.95;24.48;;;128.50;2252.80;;;;;;4949343;28;19907;-78
2021/11/14 05:08:59;;;;;;;;;;;128.50;2252.80;;;;;;4949644;28;20039;-78
2021/11/14 05:11:24;;;;;;;46.03;23.45;;;128.80;2252.80;;;;;;4966360;28;19921;-78
2021/11/14 05:13:50;;;;;;;;;;;128.80;2252.80;;;;;;4968614;28;20046;-78
2021/11/14 05:16:16;;;;;;;42.80;22.63;;;128.90;2252.80;;;;;;4966567;28;19966;-75
2021/11/14 05:18:41;;;;;;;;;;;128.80;2252.80;;;;;;4949266;28;20589;-77
2021/11/14 05:21:09;;;;;;;51.08;23.85;;;128.90;2252.80;;;;;;4968159;28;19983;-79
2021/11/14 05:23:35;;;;;;;48.70;24.05;;;128.70;2252.80;;;;;;4957491;29;20043;-77
2021/11/14 05:26:02;;;;;;;42.95;23.80;;;128.60;2252.80;;;;;;4951548;28;20031;-75
2021/11/14 05:28:28;;;;;;;48.75;23.30;;;128.80;2252.80;;;;;;4957322;29;20106;-75
2021/11/14 05:30:54;;;;;;;41.60;22.85;;;128.80;2252.80;;;;;;4950629;28;20412;-75
2021/11/14 05:33:19;;;;;;;;;;;128.90;2252.80;;;;;;4975222;28;20027;-75
2021/11/14 05:35:46;;;;;;;53.08;23.70;;;153.60;2252.80;;;;;;4945167;28;19977;-75
2021/11/14 05:38:12;;;;;;;51.17;24.42;;;153.60;2252.80;;;;;;4940510;28;20396;-75
2021/11/14 05:40:38;;;;;;;;;;;128.90;2252.80;;;;;;4957126;28;20027;-76
2021/11/14 05:43:04;;;;;;;49.10;23.77;;;153.60;2252.80;;;;;;4956722;29;20355;-77
2021/11/14 05:45:30;;;;;;;;;;;153.60;2252.80;;;;;;4940942;28;20504;-77
2021/11/14 05:47:56;;;;;;;54.03;24.38;;;153.60;2252.80;;;;;;4956839;29;19969;-74
2021/11/14 05:50:21;;;;;;;;;;;153.60;2252.80;;;;;;4957470;28;20027;-77
2021/11/14 05:52:47;;;;;;;45.90;24.27;;;153.70;2252.80;;;;;;4954758;28;19941;-78
2021/11/14 05:55:13;;;;;;;;;;;153.60;2252.80;;;;;;4940002;29;20034;-79
2021/11/14 05:57:53;;;;;;;50.35;22.88;;;153.70;2252.80;;;;;;4950525;28;19913;-76
2021/11/14 06:00:28;;;;;;;50.90;23.92;;;153.60;2252.80;;;;;;4958662;28;20573;-75
2021/11/14 06:05:33;;;;;;;48.83;25.73;;;128.60;2252.80;;;;;;4963441;28;20476;-78
2021/11/14 06:07:59;;;;;;;54.20;25.40;;;128.50;2252.80;;;;;;4948612;28;20026;-76
2021/11/14 06:10:25;;;;;;;;;;;128.40;2252.80;;;;;;4940008;28;20031;-76
2021/11/14 06:12:51;;;;;;;44.22;23.80;;;128.50;2252.80;;;;;;4965899;28;19917;-77
2021/11/14 06:15:18;;;;;;;;;;;128.60;2252.80;;;;;;4966313;28;20063;-76
2021/11/14 06:17:44;;;;;;;46.53;24.77;;;128.90;2252.80;;;;;;4949865;28;19913;-77
2021/11/14 06:20:10;;;;;;;;;;;128.80;2252.80;;;;;;4939827;29;20023;-78
2021/11/14 06:22:36;;;;;;;49.65;23.95;;;128.90;2252.80;;;;;;4956703;29;19949;-78
2021/11/14 06:25:02;;;;;;;;;;;128.90;2252.80;;;;;;4956918;29;20015;-78
2021/11/14 06:27:28;;;;;;;50.22;26.70;;;128.90;2252.80;;;;;;4944637;28;19907;-75
2021/11/14 06:29:53;;;;;;;;;;;128.90;2252.80;;;;;;4966007;28;20027;-75
2021/11/14 06:32:19;;;;;;;51.55;25.45;;;128.80;2252.80;;;;;;4948683;28;20010;-79
2021/11/14 06:34:45;;;;;;;;;;;128.90;2252.80;;;;;;4967230;28;20070;-76
2021/11/14 06:37:11;;;;;;;52.53;26.48;;;153.70;2252.80;;;;;;4938826;29;19914;-78
2021/11/14 06:39:38;;;;;;;;;;;153.80;2252.80;;;;;;4963797;28;20028;-75
2021/11/14 06:42:05;;;;;;;43.28;20.70;;;153.90;2252.80;;;;;;4966245;28;19922;-78
2021/11/14 06:44:31;;;;;;;53.90;26.02;;;153.90;2252.80;;;;;;4950648;28;20037;-77
2021/11/14 06:46:57;;;;;;;;;;;154.00;2252.80;;;;;;4944765;28;20027;-77
2021/11/14 06:49:23;;;;;;;54.40;24.88;;;154.00;2252.80;;;;;;4962970;28;20378;-81
2021/11/14 06:51:50;;;;;;;57.78;27.50;;;154.00;2252.80;;;;;;4955582;29;20464;-75
2021/11/14 06:54:15;;;;;;;56.72;27.25;;;154.10;2252.80;;;;;;4938711;29;20034;-76
2021/11/14 06:56:41;;;;;;;;;;;154.30;2252.80;;;;;;4965984;28;20035;-78
2021/11/14 06:59:07;;;;;;;46.78;24.95;;;154.50;2252.80;;;;;;4944783;28;19907;-75
2021/11/14 07:01:32;;;;;;;;;;;179.20;2252.80;;;;;;4955261;29;20501;-78
2021/11/14 07:03:58;;;;;;;48.80;25.02;;;179.30;2252.80;;;;;;4954313;29;20363;-76
2021/11/14 07:06:24;;;;;;;;;;;179.30;2252.80;;;;;;4954800;29;20023;-76
2021/11/14 07:08:49;;;;;;;50.60;26.23;;;179.50;2252.80;;;;;;4954505;28;19992;-80
2021/11/14 07:11:17;;;;;;;;;;;179.50;2252.80;;;;;;4955085;29;20023;-80
2021/11/14 07:13:44;;;;;;;50.40;22.70;;;179.60;2252.80;;;;;;4956083;28;19910;-76
2021/11/14 07:16:09;;;;;;;43.58;22.25;;;179.70;2252.80;;;;;;4942249;28;20047;-76
2021/11/14 07:18:35;;;;;;;;;;;179.90;2252.80;;;;;;4959933;28;20027;-75
2021/11/14 07:21:01;;;;;;;41.58;20.27;;;180.00;2252.80;;;;;;4959154;28;19914;-76
2021/11/14 07:23:27;;;;;;;39.92;21.13;;;180.10;2252.80;;;;;;4951479;28;20065;-75
2021/11/14 07:25:52;;;;;;;;;;;204.80;2252.80;;;;;;4948585;28;20047;-75
2021/11/14 07:28:18;;;;;;;32.83;17.10;;;204.90;2252.80;;;;;;4969825;28;19913;-79
2021/11/14 07:30:46;;;;;;;;;;;205.00;2252.80;;;;;;4970114;28;20023;-78
2021/11/14 07:33:11;;;;;;;31.80;17.00;;;205.10;2252.80;;;;;;4954828;29;19914;-77
2021/11/14 07:35:37;;;;;;;;;;;205.20;2252.80;;;;;;4964869;28;20384;-77
2021/11/14 07:38:04;;;;;;;29.73;16.52;;;205.30;2252.80;;;;;;4946434;28;19906;-75
2021/11/14 07:40:30;;;;;;;35.22;19.27;;;204.90;2252.80;;;;;;4965333;28;20033;-76
2021/11/14 07:42:56;;;;;;;35.35;17.23;;;205.40;2252.80;;;;;;4954892;29;20028;-75
2021/11/14 07:45:25;;;;;;;37.38;17.63;;;205.50;2252.80;;;;;;4964815;28;20086;-76
2021/11/14 07:47:51;;;;;;;33.60;16.95;;;205.60;2252.80;;;;;;4963142;28;20031;-76
2021/11/14 07:50:20;;;;;;;29.88;15.98;;;205.70;2252.80;;;;;;4954729;29;20027;-77
2021/11/14 07:52:46;;;;;;;28.90;16.13;;;230.40;2252.80;;;;;;4937443;29;20086;-77
2021/11/14 07:55:12;;;;;;;;;;;230.40;2252.80;;;;;;4963882;28;20476;-79
2021/11/14 07:57:42;;;;;;;34.20;16.35;;;230.50;2252.80;;;;;;4964686;28;19955;-77
2021/11/14 08:00:16;;;;;;;28.00;15.30;;;230.60;2252.80;;;;;;4965360;28;20034;-75
2021/11/14 08:02:42;;;;;;;30.48;15.77;;;230.60;2252.80;;;;;;4954769;29;20027;-76
2021/11/14 08:05:08;;;;;;;;;;;230.60;2252.80;;;;;;4955108;29;20015;-77
2021/11/14 08:07:34;;;;;;;30.73;15.65;;;230.70;2252.80;;;;;;4954572;29;19914;-76
2021/11/14 08:09:59;;;;;;;;;;;230.70;2252.80;;;;;;4955110;28;20043;-76
2021/11/14 08:12:25;;;;;;;27.13;14.63;;;230.80;2252.80;;;;;;4948127;28;20474;-75
2021/11/14 08:14:51;;;;;;;;;;;230.90;2252.80;;;;;;4963482;28;20484;-79
2021/11/14 08:17:17;;;;;;;28.92;15.40;;;231.00;2252.80;;;;;;4947711;28;19913;-75
2021/11/14 08:19:43;;;;;;;;;;;231.10;2252.80;;;;;;4947787;28;20031;-78
2021/11/14 08:22:09;;;;;;;28.63;14.98;;;231.20;2252.80;;;;;;4963114;28;19906;-76
2021/11/14 08:24:34;;;;;;;;;;;231.20;2252.80;;;;;;4963593;28;20260;-78
2021/11/14 08:27:00;;;;;;;37.22;20.48;;;231.30;2252.80;;;;;;4962979;28;19906;-76
2021/11/14 08:29:26;;;;;;;;;;;256.00;2252.80;;;;;;4962825;28;20097;-75
2021/11/14 08:31:51;;;;;;;27.35;13.52;;;256.20;2252.80;;;;;;4940667;29;19917;-77
2021/11/14 08:34:17;;;;;;;;;;;256.20;2252.80;;;;;;4954757;29;20034;-78
2021/11/14 08:36:43;;;;;;;29.58;15.80;;;256.30;2252.80;;;;;;4941821;28;19918;-79
2021/11/14 08:39:09;;;;;;;;;;;256.50;2252.80;;;;;;4946622;28;20019;-80
2021/11/14 08:41:35;;;;;;;23.90;13.13;;;256.50;2252.80;;;;;;4965356;28;19949;-78
2021/11/14 08:44:00;;;;;;;;;;;256.60;2252.80;;;;;;4955171;29;20083;-79
2021/11/14 08:46:26;;;;;;;21.08;12.10;;;256.70;2252.80;;;;;;4954618;29;19911;-76
2021/11/14 08:48:53;;;;;;;;;;;256.70;2252.80;;;;;;4959980;28;21131;-75
2021/11/14 08:51:20;;;;;;;19.42;12.45;;;256.80;2252.80;;;;;;4964847;28;19949;-77
2021/11/14 08:53:46;;;;;;;33.80;18.10;;;256.90;2252.80;;;;;;4963841;28;20030;-76
2021/11/14 08:56:12;;;;;;;26.25;15.80;;;256.90;2252.80;;;;;;4962743;28;20031;-78
2021/11/14 08:58:39;;;;;;;30.23;16.63;;;281.60;2278.40;;;;;;4954653;29;20024;-78
2021/11/14 09:01:07;;;;;;;23.75;12.68;;;281.70;2278.40;;;;;;4954918;29;20063;-77
2021/11/14 09:03:33;;;;;;;26.23;14.30;;;281.80;2278.40;;;;;;4954815;28;20024;-79
2021/11/14 09:05:59;;;;;;;36.53;19.92;;;281.90;2278.40;;;;;;4957688;29;20388;-75
2021/11/14 09:08:25;;;;;;;30.95;17.23;;;282.10;2278.40;;;;;;4941423;29;20047;-75
2021/11/14 09:10:51;;;;;;;32.03;18.02;;;282.20;2278.40;;;;;;4958419;28;20546;-78
2021/11/14 09:13:17;;;;;;;42.58;20.73;;;282.20;2278.40;;;;;;4958212;29;20023;-76
2021/11/14 09:15:43;;;;;;;24.25;13.70;;;282.40;2278.40;;;;;;4958044;29;20411;-75
2021/11/14 09:18:09;;;;;;;21.77;12.30;;;282.50;2278.40;;;;;;4957982;29;20059;-77
2021/11/14 09:20:35;;;;;;;24.48;12.85;;;307.20;2304.00;;;;;;4958303;29;20121;-76
2021/11/14 09:23:02;;;;;;;21.67;12.85;;;307.30;2304.00;;;;;;4957468;29;20027;-77
2021/11/14 09:25:28;;;;;;;22.20;12.20;;;307.40;2304.00;;;;;;4943576;28;20039;-76
2021/11/14 09:27:54;;;;;;;43.13;28.88;;;307.60;2304.00;;;;;;4940901;29;20490;-82
2021/11/14 09:30:21;;;;;;;19.63;11.57;;;307.70;2304.00;;;;;;4948332;28;20035;-76
2021/11/14 09:32:47;;;;;;;25.30;13.32;;;307.80;2304.00;;;;;;4952629;28;20023;-80
2021/11/14 09:35:13;;;;;;;28.67;16.00;;;307.90;2304.00;;;;;;4951647;28;20113;-82
2021/11/14 09:37:39;;;;;;;18.85;10.73;;;308.10;2304.00;;;;;;4948349;28;20035;-78
2021/11/14 09:40:09;;;;;;;29.40;12.05;;;308.10;2304.00;;;;;;4970163;28;20431;-77
2021/11/14 09:42:36;;;;;;;21.02;11.10;;;332.90;2329.60;;;;;;4951215;28;20034;-78
2021/11/14 09:45:04;;;;;;;23.02;12.43;;;332.90;2329.60;;;;;;4966348;28;20441;-79
2021/11/14 09:47:30;;;;;;;17.35;10.23;;;333.10;2329.60;;;;;;4958978;28;20034;-76
2021/11/14 09:49:58;;;;;;;19.20;10.95;;;333.10;2329.60;;;;;;4957760;29;20448;-76
2021/11/14 09:52:25;;;;;;;14.55;9.02;;;333.30;2329.60;;;;;;4940539;29;20059;-79
2021/11/14 09:54:51;;;;;;;19.15;10.18;;;333.40;2329.60;;;;;;4945295;28;20031;-79
2021/11/14 09:57:17;;;;;;;20.08;11.57;;;333.40;2329.60;;;;;;4940262;29;20027;-76
2021/11/14 09:59:43;;;;;;;21.42;12.30;;;333.60;2329.60;;;;;;4957398;29;20042;-80
2021/11/14 10:02:10;;;;;;;21.95;12.52;;;333.50;2329.60;;;;;;4943103;29;20031;-84
2021/11/14 10:04:38;;;;;;;18.10;10.35;;;333.70;2329.60;;;;;;4957616;29;20106;-76
2021/11/14 10:07:10;;;;;;;15.48;9.43;;;333.70;2329.60;;;;;;4940429;29;20063;-76
2021/11/14 10:09:40;;;;;;;20.02;12.05;;;358.50;2329.60;;;;;;4940032;29;20051;-78
2021/11/14 10:12:17;;;;;;;21.75;12.23;;;358.60;2329.60;;;;;;4957538;29;20155;-81
2021/11/14 10:14:44;;;;;;;26.30;14.48;;;358.60;2329.60;;;;;;4957235;29;20550;-77
2021/11/14 10:17:23;;;;;;;22.55;13.15;;;358.80;2329.60;;;;;;4957208;28;20027;-80
2021/11/14 10:20:04;;;;;;;18.10;11.35;;;358.80;2329.60;;;;;;4939765;29;20062;-76
2021/11/14 10:22:30;;;;;;;30.63;16.25;;;359.00;2329.60;;;;;;4957216;29;20387;-82
2021/11/14 10:24:57;;;;;;;21.50;12.40;;;359.00;2329.60;;;;;;4947691;28;20057;-80
2021/11/14 10:27:27;;;;;;;18.30;10.38;;;359.00;2329.60;;;;;;4956792;29;20016;-82
2021/11/14 10:29:54;;;;;;;20.73;11.98;;;359.10;2329.60;;;;;;4957017;28;20044;-81
2021/11/14 10:32:21;;;;;;;22.98;12.65;;;359.20;2329.60;;;;;;4962832;28;20494;-77
2021/11/14 10:34:56;;;;;;;26.27;12.82;;;359.10;2329.60;;;;;;4948260;28;20034;-75
2021/11/14 10:37:22;;;;;;;17.05;10.57;;;359.10;2329.60;;;;;;4956481;29;20026;-79
2021/11/14 10:39:55;;;;;;;14.85;9.32;;;359.20;2329.60;;;;;;4956902;29;20031;-80
2021/11/14 10:42:25;;;;;;;19.63;9.32;;;384.10;2329.60;;;;;;4956728;29;20090;-77
2021/11/14 10:44:54;;;;;;;17.50;9.05;;;384.20;2329.60;;;;;;4939707;29;20035;-81
2021/11/14 10:47:23;;;;;;;16.33;9.32;;;384.40;2329.60;;;;;;4956667;29;20106;-74
2021/11/14 10:49:56;;;;;;;17.30;10.65;;;384.60;2329.60;;;;;;4939411;29;20023;-78
2021/11/14 10:52:23;;;;;;;15.55;8.57;;;384.60;2329.60;;;;;;4955404;29;20039;-77
2021/11/14 10:54:58;;;;;;;14.43;8.45;;;384.70;2329.60;;;;;;4955538;29;20027;-77
2021/11/14 10:57:26;;;;;;;14.43;9.57;;;384.70;2329.60;;;;;;4955464;29;20027;-78
2021/11/14 10:59:52;;;;;;;14.10;7.90;;;384.70;2329.60;;;;;;4955197;29;20023;-77
2021/11/14 11:02:21;;;;;;;14.05;8.45;;;384.70;2329.60;;;;;;4937906;29;20027;-78
2021/11/14 11:04:48;;;;;;;15.02;7.80;;;384.70;2329.60;;;;;;4937916;29;20024;-78
2021/11/14 11:07:14;;;;;;;14.63;8.73;;;384.90;2329.60;;;;;;4938627;29;20031;-77
2021/11/14 11:09:42;;;;;;;15.30;8.18;;;384.70;2329.60;;;;;;4955800;28;20078;-75
2021/11/14 11:12:22;;;;;;;17.88;9.73;;;384.70;2329.60;;;;;;4955950;29;20030;-77
2021/11/14 11:14:57;;;;;;;18.23;10.38;;;384.80;2329.60;;;;;;4938623;29;20034;-77
2021/11/14 11:17:24;;;;;;;19.47;10.33;;;384.90;2329.60;;;;;;4938886;29;20031;-76
2021/11/14 11:19:50;;;;;;;12.88;7.65;;;409.60;2329.60;;;;;;4938567;29;20404;-78
2021/11/14 11:22:16;;;;;;;13.80;8.50;;;409.60;2329.60;;;;;;4955726;29;20039;-76
2021/11/14 11:24:54;;;;;;;16.38;8.32;;;409.70;2304.00;;;;;;4955939;29;20122;-80
2021/11/14 11:27:21;;;;;;;12.80;7.72;;;409.70;2329.60;;;;;;4955258;28;20031;-78
2021/11/14 11:29:47;;;;;;;14.82;8.95;;;409.80;2329.60;;;;;;4955587;29;20030;-75
2021/11/14 11:32:15;;;;;;;14.77;8.38;;;409.80;2304.00;;;;;;4955586;29;20023;-74
2021/11/14 11:34:42;;;;;;;16.52;9.15;;;409.80;2304.00;;;;;;4955437;29;20151;-75
2021/11/14 11:37:11;;;;;;;22.85;7.75;;;409.70;2278.40;;;;;;4955525;29;20023;-75
2021/11/14 11:39:38;;;;;;;14.50;8.30;;;409.80;2252.80;;;;;;4938340;29;20526;-77
2021/11/14 11:42:05;;;;;;;15.68;8.23;;;409.60;2278.40;;;;;;4955556;29;20473;-77
2021/11/14 11:44:32;;;;;;;13.13;7.93;;;409.70;2278.40;;;;;;4955492;29;20096;-76
2021/11/14 11:47:05;;;;;;;13.48;7.70;;;409.80;2252.80;;;;;;4955235;29;20029;-76
2021/11/14 11:49:32;;;;;;;12.20;8.02;;;409.80;2252.80;;;;;;4955354;29;20023;-77
2021/11/14 11:52:02;;;;;;;15.90;8.57;;;409.90;2227.20;;;;;;4955447;29;20043;-77
2021/11/14 11:54:32;;;;;;;13.13;7.88;;;410.00;2252.80;;;;;;4937841;29;20118;-78
2021/11/14 11:57:00;;;;;;;15.32;8.82;;;409.90;2201.60;;;;;;4947156;28;20399;-76
2021/11/14 11:59:29;;;;;;;13.00;8.10;;;410.00;2201.60;;;;;;4963625;28;20042;-75
2021/11/14 12:02:03;;;;;;;14.52;8.55;;;409.90;2201.60;;;;;;4964050;28;20029;-78
2021/11/14 12:04:55;;;;;;;17.80;8.20;;;410.00;2201.60;;;;;;4958196;28;20600;-80
2021/11/14 12:07:27;;;;;;;14.43;8.65;;;409.80;2176.00;;;;;;4946041;29;20062;-88
2021/11/14 12:09:55;;;;;;;16.17;10.43;;;409.70;2201.60;;;;;;4938359;29;20086;-82
2021/11/14 12:12:34;;;;;;;13.00;8.60;;;409.60;2278.40;;;;;;4937984;29;20069;-80
2021/11/14 12:15:20;;;;;;;14.40;8.95;;;409.70;2227.20;;;;;;4957787;28;20110;-77
2021/11/14 12:17:57;;;;;;;20.30;10.60;;;384.90;2201.60;;;;;;4949035;29;20028;-83
2021/11/14 12:20:51;;;;;;;15.40;9.27;;;384.90;2227.20;;;;;;4953477;29;20019;-78
2021/11/14 12:23:19;;;;;;;15.98;9.95;;;384.80;2227.20;;;;;;4953043;29;20043;-81
2021/11/14 12:25:48;;;;;;;12.77;8.50;;;384.90;2329.60;;;;;;4943345;28;20406;-77